Fordsville, Kentucky
Current Conditions -  °F | °C
As of 11:56 AM on Monday 24 Nov 2014 (Local Time) from KOWB Reporting Station
Overcast Overcast  
Wind Chill: 39°   Ceiling: 3200
Heat Index: 46°   Visibility: 10mi
Dew Point: 37°   Wind: 18mph
Humidity: 71%   Direction: 240°WSW
Pressure: 29.73"   Gusts: 28mph
Location:  37.64°N, 86.72°W
Report Text: KOWB 241756Z 24016G24KT 10SM OVC032 08/03 A2973 RMK AO2 51033 60003 T00770027 10161 20066 SLP069
Loading
Personal Weather Stations






























Interactive Weather Map New forecast layout! Learn more

10-Day Weather Forecast

Advertisements
Track Severe Weather on mobile